Station History

Weather Underground - logo

Station Historical Data
Daily Summary for December 5, 2017 Units:  Both    English   Metric
« Previous Day
Next Day »
Daily Weekly Monthly Yearly Custom
  High: Low: Average:
Temperature: TemperatureF °F /  -17.8 °C 32.8 °F /  0.4 °C 42.7 °F /  5.9 °C
Dew Point: DewpointF °F /  -17.8 °C 31.1 °F /  -0.5 °C 36.6 °F /  2.6 °C
Humidity: Humidity % 52 % 81 %
Wind Speed: WindSpeedMPH mph /  0 km/h - 0.5 mph /  0.8 km/h
Wind Gust: WindSpeedGustMPH mph /  0 km/h - -
Wind:- - South
Pressure: PressureIn in /  0 hPa 30.22 in /  1023.2 hPa -
Precipitation: 0.01 in /  0.25 mm    
Historical Graphs
 
 
Tabular Data for December 5, 2017
Time Temperature Dew Point Pressure Wind Wind Speed Wind Gust Humidity Rainfall Rate (Hourly)
TemperatureF °F /  -17.8 °C DewpointF °F /  -17.8 °C PressureIn in /  0 hPa Calm     Humidity % HourlyPrecipIn in /  0 mm
00:04 36.7 °F /  2.6 °C 34.6 °F /  1.4 °C 30.22 in /  1023.2 hPa Calm     92 % 0.00 in /  0 mm
00:09 36.7 °F /  2.6 °C 34.6 °F /  1.4 °C 30.22 in /  1023.2 hPa Calm     92 % 0.00 in /  0 mm
00:14 36.7 °F /  2.6 °C 34.6 °F /  1.4 °C 30.22 in /  1023.2 hPa Calm     92 % 0.00 in /  0 mm
00:19 36.6 °F /  2.6 °C 34.5 °F /  1.4 °C 30.22 in /  1023.2 hPa Calm     92 % 0.00 in /  0 mm
00:24 36.6 °F /  2.6 °C 34.5 °F /  1.4 °C 30.23 in /  1023.6 hPa Calm     92 % 0.00 in /  0 mm
00:29 36.6 °F /  2.6 °C 34.8 °F /  1.6 °C 30.23 in /  1023.6 hPa Calm     93 % 0.00 in /  0 mm
00:34 36.7 °F /  2.6 °C 34.9 °F /  1.6 °C 30.23 in /  1023.6 hPa Calm     93 % 0.00 in /  0 mm
00:39 36.9 °F /  2.7 °C 35.1 °F /  1.7 °C 30.23 in /  1023.6 hPa Calm     93 % 0.00 in /  0 mm
00:44 37.1 °F /  2.8 °C 35.3 °F /  1.8 °C 30.23 in /  1023.6 hPa Calm     93 % 0.00 in /  0 mm
00:49 37.3 °F /  2.9 °C 35.5 °F /  1.9 °C 30.23 in /  1023.6 hPa East 1.2 mph /  1.9 km/h 1.2 mph /  1.9 km/h 93 % 0.00 in /  0 mm
00:54 37.5 °F /  3.1 °C 35.4 °F /  1.9 °C 30.23 in /  1023.6 hPa Calm     92 % 0.00 in /  0 mm
00:59 37.6 °F /  3.1 °C 35.5 °F /  1.9 °C 30.24 in /  1023.9 hPa East 1.2 mph /  1.9 km/h   92 % 0.00 in /  0 mm
01:04 37.8 °F /  3.2 °C 35.7 °F /  2.1 °C 30.24 in /  1023.9 hPa Calm     92 % 0.00 in /  0 mm
01:09 37.8 °F /  3.2 °C 35.7 °F /  2.1 °C 30.24 in /  1023.9 hPa Calm     92 % 0.00 in /  0 mm
01:14 37.8 °F /  3.2 °C 35.4 °F /  1.9 °C 30.24 in /  1023.9 hPa Calm     91 % 0.00 in /  0 mm
01:19 37.8 °F /  3.2 °C 35.4 °F /  1.9 °C 30.24 in /  1023.9 hPa Calm     91 % 0.00 in /  0 mm
01:24 37.7 °F /  3.2 °C 35.3 °F /  1.8 °C 30.23 in /  1023.6 hPa Calm     91 % 0.00 in /  0 mm
01:29 37.8 °F /  3.2 °C 35.4 °F /  1.9 °C 30.23 in /  1023.6 hPa East 1.2 mph /  1.9 km/h   91 % 0.00 in /  0 mm
01:34 37.9 °F /  3.3 °C 35.8 °F /  2.1 °C 30.24 in /  1023.9 hPa Calm     92 % 0.00 in /  0 mm
01:39 37.8 °F /  3.2 °C 35.4 °F /  1.9 °C 30.24 in /  1023.9 hPa Calm     91 % 0.00 in /  0 mm
01:44 37.8 °F /  3.2 °C 35.4 °F /  1.9 °C 30.24 in /  1023.9 hPa Calm     91 % 0.00 in /  0 mm
01:49 37.8 °F /  3.2 °C 35.7 °F /  2.1 °C 30.24 in /  1023.9 hPa Calm     92 % 0.00 in /  0 mm
01:54 38.0 °F /  3.3 °C 35.9 °F /  2.2 °C 30.24 in /  1023.9 hPa Calm     92 % 0.00 in /  0 mm
01:59 37.7 °F /  3.2 °C 35.0 °F /  1.7 °C 30.24 in /  1023.9 hPa Calm     90 % 0.00 in /  0 mm
02:04 37.2 °F /  2.9 °C 34.8 °F /  1.6 °C 30.24 in /  1023.9 hPa Calm     91 % 0.00 in /  0 mm
02:09 37.0 °F /  2.8 °C 34.6 °F /  1.4 °C 30.25 in /  1024.3 hPa Calm     91 % 0.00 in /  0 mm
02:14 36.8 °F /  2.7 °C 34.4 °F /  1.3 °C 30.24 in /  1023.9 hPa Calm     91 % 0.00 in /  0 mm
02:19 36.5 °F /  2.5 °C 34.4 °F /  1.3 °C 30.24 in /  1023.9 hPa East 1.2 mph /  1.9 km/h 1.2 mph /  1.9 km/h 92 % 0.00 in /  0 mm
02:24 36.2 °F /  2.3 °C 33.8 °F /  1 °C 30.25 in /  1024.3 hPa Calm     91 % 0.00 in /  0 mm
02:29 35.9 °F /  2.2 °C 33.8 °F /  1 °C 30.24 in /  1023.9 hPa East 1.2 mph /  1.9 km/h   92 % 0.00 in /  0 mm
02:34 35.8 °F /  2.1 °C 33.7 °F /  0.9 °C 30.24 in /  1023.9 hPa Calm     92 % 0.00 in /  0 mm
02:39 35.6 °F /  2 °C 33.5 °F /  0.8 °C 30.24 in /  1023.9 hPa Calm     92 % 0.00 in /  0 mm
02:44 35.4 °F /  1.9 °C 33.6 °F /  0.9 °C 30.24 in /  1023.9 hPa Calm     93 % 0.00 in /  0 mm
02:49 35.3 °F /  1.8 °C 33.5 °F /  0.8 °C 30.24 in /  1023.9 hPa East 1.2 mph /  1.9 km/h   93 % 0.00 in /  0 mm
02:54 35.1 °F /  1.7 °C 33.3 °F /  0.7 °C 30.24 in /  1023.9 hPa Calm     93 % 0.00 in /  0 mm
02:59 35.1 °F /  1.7 °C 33.3 °F /  0.7 °C 30.24 in /  1023.9 hPa Calm     93 % 0.00 in /  0 mm
03:04 35.0 °F /  1.7 °C 33.2 °F /  0.7 °C 30.24 in /  1023.9 hPa East 1.0 mph /  1.6 km/h   93 % 0.00 in /  0 mm
03:09 34.9 °F /  1.6 °C 33.1 °F /  0.6 °C 30.24 in /  1023.9 hPa Calm     93 % 0.00 in /  0 mm
03:14 34.9 °F /  1.6 °C 33.1 °F /  0.6 °C 30.24 in /  1023.9 hPa Calm     93 % 0.00 in /  0 mm
03:18 34.8 °F /  1.6 °C 33.0 °F /  0.6 °C 30.24 in /  1023.9 hPa Calm     93 % 0.00 in /  0 mm
03:23 34.8 °F /  1.6 °C 33.0 °F /  0.6 °C 30.24 in /  1023.9 hPa Calm     93 % 0.00 in /  0 mm
03:28 34.8 °F /  1.6 °C 33.0 °F /  0.6 °C 30.24 in /  1023.9 hPa East 1.0 mph /  1.6 km/h   93 % 0.00 in /  0 mm
03:33 34.7 °F /  1.5 °C 32.9 °F /  0.5 °C 30.25 in /  1024.3 hPa Calm     93 % 0.00 in /  0 mm
03:38 34.9 °F /  1.6 °C 33.3 °F /  0.7 °C 30.25 in /  1024.3 hPa Calm     94 % 0.00 in /  0 mm
03:43 35.1 °F /  1.7 °C 33.5 °F /  0.8 °C 30.24 in /  1023.9 hPa East 1.2 mph /  1.9 km/h   94 % 0.00 in /  0 mm
03:45 35.1 °F /  1.7 °C 33.5 °F /  0.8 °C 30.24 in /  1023.9 hPa East 1.2 mph /  1.9 km/h 1.2 mph /  1.9 km/h 94 % 0.00 in /  0 mm
03:50 35.2 °F /  1.8 °C 33.4 °F /  0.8 °C 30.24 in /  1023.9 hPa Calm     93 % 0.00 in /  0 mm
03:55 35.2 °F /  1.8 °C 33.4 °F /  0.8 °C 30.25 in /  1024.3 hPa Calm     93 % 0.00 in /  0 mm
04:00 35.0 °F /  1.7 °C 33.2 °F /  0.7 °C 30.25 in /  1024.3 hPa Calm     93 % 0.00 in /  0 mm
04:05 34.5 °F /  1.4 °C 32.4 °F /  0.2 °C 30.25 in /  1024.3 hPa Calm     92 % 0.00 in /  0 mm
04:10 34.2 °F /  1.2 °C 32.1 °F /  0.1 °C 30.26 in /  1024.6 hPa East 1.2 mph /  1.9 km/h 1.2 mph /  1.9 km/h 92 % 0.00 in /  0 mm
04:15 34.1 °F /  1.2 °C 32.3 °F /  0.2 °C 30.26 in /  1024.6 hPa Calm     93 % 0.00 in /  0 mm
04:20 34.0 °F /  1.1 °C 32.2 °F /  0.1 °C 30.25 in /  1024.3 hPa Calm     93 % 0.00 in /  0 mm
04:25 33.9 °F /  1.1 °C 32.1 °F /  0.1 °C 30.26 in /  1024.6 hPa East 1.2 mph /  1.9 km/h   93 % 0.00 in /  0 mm
04:30 33.9 °F /  1.1 °C 32.4 °F /  0.2 °C 30.26 in /  1024.6 hPa Calm     94 % 0.00 in /  0 mm
04:35 33.8 °F /  1 °C 32.3 °F /  0.2 °C 30.26 in /  1024.6 hPa Calm     94 % 0.00 in /  0 mm
04:40 33.8 °F /  1 °C 32.3 °F /  0.2 °C 30.26 in /  1024.6 hPa Calm     94 % 0.00 in /  0 mm
04:45 33.8 °F /  1 °C 32.3 °F /  0.2 °C 30.26 in /  1024.6 hPa Calm     94 % 0.00 in /  0 mm
04:50 33.7 °F /  0.9 °C 32.2 °F /  0.1 °C 30.26 in /  1024.6 hPa Calm     94 % 0.00 in /  0 mm
04:55 33.8 °F /  1 °C 32.3 °F /  0.2 °C 30.26 in /  1024.6 hPa Calm     94 % 0.00 in /  0 mm
05:00 33.6 °F /  0.9 °C 32.1 °F /  0.1 °C 30.26 in /  1024.6 hPa Calm     94 % 0.00 in /  0 mm
05:05 33.4 °F /  0.8 °C 31.9 °F /  -0.1 °C 30.26 in /  1024.6 hPa Calm     94 % 0.00 in /  0 mm
05:10 33.2 °F /  0.7 °C 31.7 °F /  -0.2 °C 30.26 in /  1024.6 hPa Calm     94 % 0.00 in /  0 mm
05:15 33.1 °F /  0.6 °C 31.6 °F /  -0.2 °C 30.26 in /  1024.6 hPa Calm     94 % 0.00 in /  0 mm
05:16 33.2 °F /  0.7 °C 31.7 °F /  -0.2 °C 30.26 in /  1024.6 hPa Calm     94 % 0.00 in /  0 mm
05:21 33.1 °F /  0.6 °C 31.6 °F /  -0.2 °C 30.26 in /  1024.6 hPa Calm     94 % 0.00 in /  0 mm
05:26 33.1 °F /  0.6 °C 31.6 °F /  -0.2 °C 30.26 in /  1024.6 hPa Calm     94 % 0.00 in /  0 mm
05:31 33.1 °F /  0.6 °C 31.6 °F /  -0.2 °C 30.26 in /  1024.6 hPa East 1.2 mph /  1.9 km/h 1.2 mph /  1.9 km/h 94 % 0.00 in /  0 mm
05:36 33.2 °F /  0.7 °C 31.7 °F /  -0.2 °C 30.26 in /  1024.6 hPa Calm     94 % 0.00 in /  0 mm
05:41 33.3 °F /  0.7 °C 31.8 °F /  -0.1 °C 30.26 in /  1024.6 hPa East 1.2 mph /  1.9 km/h   94 % 0.00 in /  0 mm
05:46 33.4 °F /  0.8 °C 31.9 °F /  -0.1 °C 30.26 in /  1024.6 hPa East 1.2 mph /  1.9 km/h   94 % 0.00 in /  0 mm
05:51 33.7 °F /  0.9 °C 32.2 °F /  0.1 °C 30.26 in /  1024.6 hPa Calm     94 % 0.00 in /  0 mm
05:56 33.8 °F /  1 °C 32.3 °F /  0.2 °C 30.26 in /  1024.6 hPa Calm     94 % 0.00 in /  0 mm
06:01 33.7 °F /  0.9 °C 32.2 °F /  0.1 °C 30.26 in /  1024.6 hPa Calm     94 % 0.00 in /  0 mm
06:06 33.8 °F /  1 °C 32.3 °F /  0.2 °C 30.26 in /  1024.6 hPa Calm     94 % 0.00 in /  0 mm
06:11 33.7 °F /  0.9 °C 32.2 °F /  0.1 °C 30.27 in /  1024.9 hPa Calm     94 % 0.00 in /  0 mm
06:16 33.8 °F /  1 °C 32.3 °F /  0.2 °C 30.27 in /  1024.9 hPa Calm     94 % 0.00 in /  0 mm
06:21 33.7 °F /  0.9 °C 32.2 °F /  0.1 °C 30.27 in /  1024.9 hPa Calm     94 % 0.00 in /  0 mm
06:26 33.8 °F /  1 °C 32.3 °F /  0.2 °C 30.27 in /  1024.9 hPa Calm     94 % 0.00 in /  0 mm
06:31 34.0 °F /  1.1 °C 32.5 °F /  0.3 °C 30.27 in /  1024.9 hPa Calm     94 % 0.00 in /  0 mm
06:36 33.7 °F /  0.9 °C 32.2 °F /  0.1 °C 30.28 in /  1025.3 hPa Calm     94 % 0.00 in /  0 mm
06:41 33.6 °F /  0.9 °C 31.8 °F /  -0.1 °C 30.28 in /  1025.3 hPa Calm     93 % 0.00 in /  0 mm
06:46 33.6 °F /  0.9 °C 32.1 °F /  0.1 °C 30.28 in /  1025.3 hPa Calm     94 % 0.00 in /  0 mm
06:51 33.6 °F /  0.9 °C 32.1 °F /  0.1 °C 30.28 in /  1025.3 hPa Calm     94 % 0.00 in /  0 mm
06:56 33.5 °F /  0.8 °C 32.0 °F /  0 °C 30.29 in /  1025.6 hPa Calm     94 % 0.00 in /  0 mm
07:01 33.3 °F /  0.7 °C 31.5 °F /  -0.3 °C 30.29 in /  1025.6 hPa Calm     93 % 0.00 in /  0 mm
07:06 32.9 °F /  0.5 °C 31.1 °F /  -0.5 °C 30.30 in /  1026 hPa Calm     93 % 0.00 in /  0 mm
07:11 33.0 °F /  0.6 °C 31.2 °F /  -0.4 °C 30.29 in /  1025.6 hPa Calm     93 % 0.00 in /  0 mm
07:16 32.9 °F /  0.5 °C 31.1 °F /  -0.5 °C 30.30 in /  1026 hPa Calm     93 % 0.00 in /  0 mm
07:21 32.8 °F /  0.4 °C 31.3 °F /  -0.4 °C 30.29 in /  1025.6 hPa East 1.2 mph /  1.9 km/h   94 % 0.00 in /  0 mm
07:26 33.2 °F /  0.7 °C 31.7 °F /  -0.2 °C 30.30 in /  1026 hPa East 1.2 mph /  1.9 km/h 1.2 mph /  1.9 km/h 94 % 0.00 in /  0 mm
07:31 33.2 °F /  0.7 °C 31.7 °F /  -0.2 °C 30.30 in /  1026 hPa Calm     94 % 0.00 in /  0 mm
07:36 33.5 °F /  0.8 °C 32.0 °F /  0 °C 30.29 in /  1025.6 hPa Calm     94 % 0.00 in /  0 mm
07:41 34.1 °F /  1.2 °C 32.6 °F /  0.3 °C 30.30 in /  1026 hPa Calm     94 % 0.00 in /  0 mm
07:46 34.9 °F /  1.6 °C 33.6 °F /  0.9 °C 30.29 in /  1025.6 hPa Calm     95 % 0.00 in /  0 mm
07:51 35.8 °F /  2.1 °C 34.5 °F /  1.4 °C 30.30 in /  1026 hPa Calm     95 % 0.00 in /  0 mm
07:56 37.0 °F /  2.8 °C 35.7 °F /  2.1 °C 30.30 in /  1026 hPa East 1.2 mph /  1.9 km/h 1.2 mph /  1.9 km/h 95 % 0.00 in /  0 mm
08:01 37.8 °F /  3.2 °C 36.2 °F /  2.3 °C 30.29 in /  1025.6 hPa Calm     94 % 0.00 in /  0 mm
08:06 38.9 °F /  3.8 °C 36.8 °F /  2.7 °C 30.30 in /  1026 hPa Calm     92 % 0.00 in /  0 mm
08:11 39.5 °F /  4.2 °C 36.5 °F /  2.5 °C 30.30 in /  1026 hPa Calm     89 % 0.00 in /  0 mm
08:16 39.2 °F /  4 °C 36.2 °F /  2.3 °C 30.31 in /  1026.3 hPa Calm     89 % 0.01 in /  0.25 mm
08:21 40.2 °F /  4.6 °C 37.5 °F /  3.1 °C 30.31 in /  1026.3 hPa Calm     90 % 0.01 in /  0.25 mm
08:26 40.3 °F /  4.6 °C 37.0 °F /  2.8 °C 30.31 in /  1026.3 hPa Calm     88 % 0.01 in /  0.25 mm
08:31 40.4 °F /  4.7 °C 37.1 °F /  2.8 °C 30.32 in /  1026.6 hPa WNW 1.2 mph /  1.9 km/h   88 % 0.01 in /  0.25 mm
08:36 40.7 °F /  4.8 °C 37.7 °F /  3.2 °C 30.31 in /  1026.3 hPa West 1.2 mph /  1.9 km/h 1.2 mph /  1.9 km/h 89 % 0.01 in /  0.25 mm
08:41 40.9 °F /  4.9 °C 37.6 °F /  3.1 °C 30.32 in /  1026.6 hPa West 1.2 mph /  1.9 km/h   88 % 0.01 in /  0.25 mm
08:47 41.2 °F /  5.1 °C 37.9 °F /  3.3 °C 30.32 in /  1026.6 hPa West 1.2 mph /  1.9 km/h 1.2 mph /  1.9 km/h 88 % 0.01 in /  0.25 mm
08:52 41.5 °F /  5.3 °C 37.6 °F /  3.1 °C 30.32 in /  1026.6 hPa WNW 1.2 mph /  1.9 km/h 1.2 mph /  1.9 km/h 86 % 0.01 in /  0.25 mm
08:57 41.9 °F /  5.5 °C 38.0 °F /  3.3 °C 30.32 in /  1026.6 hPa NW 1.2 mph /  1.9 km/h 1.2 mph /  1.9 km/h 86 % 0.01 in /  0.25 mm
09:02 42.6 °F /  5.9 °C 38.7 °F /  3.7 °C 30.32 in /  1026.6 hPa Calm     86 % 0.01 in /  0.25 mm
09:07 43.6 °F /  6.4 °C 39.7 °F /  4.3 °C 30.33 in /  1027 hPa SSE 1.2 mph /  1.9 km/h 1.2 mph /  1.9 km/h 86 % 0.01 in /  0.25 mm
09:12 44.6 °F /  7 °C 39.8 °F /  4.3 °C 30.33 in /  1027 hPa SE 3.5 mph /  5.6 km/h 3.5 mph /  5.6 km/h 83 % 0.00 in /  0 mm
09:17 45.0 °F /  7.2 °C 39.5 °F /  4.2 °C 30.33 in /  1027 hPa SE 3.5 mph /  5.6 km/h 3.5 mph /  5.6 km/h 81 % 0.00 in /  0 mm
09:22 45.1 °F /  7.3 °C 39.3 °F /  4.1 °C 30.33 in /  1027 hPa South 3.5 mph /  5.6 km/h 3.5 mph /  5.6 km/h 80 % 0.00 in /  0 mm
09:27 45.3 °F /  7.4 °C 39.2 °F /  4 °C 30.34 in /  1027.3 hPa SSW 1.2 mph /  1.9 km/h 1.2 mph /  1.9 km/h 79 % 0.00 in /  0 mm
09:32 45.6 °F /  7.6 °C 38.8 °F /  3.8 °C 30.33 in /  1027 hPa SE 3.5 mph /  5.6 km/h 3.5 mph /  5.6 km/h 77 % 0.00 in /  0 mm
09:37 45.7 °F /  7.6 °C 38.6 °F /  3.7 °C 30.33 in /  1027 hPa SSW 1.2 mph /  1.9 km/h 1.2 mph /  1.9 km/h 76 % 0.00 in /  0 mm
09:47 46.4 °F /  8 °C 39.2 °F /  4 °C 30.33 in /  1027 hPa Calm     76 % 0.00 in /  0 mm
09:52 46.7 °F /  8.2 °C 39.5 °F /  4.2 °C 30.34 in /  1027.3 hPa South 1.2 mph /  1.9 km/h 1.2 mph /  1.9 km/h 76 % 0.00 in /  0 mm
09:57 47.1 °F /  8.4 °C 39.2 °F /  4 °C 30.33 in /  1027 hPa SW 1.0 mph /  1.6 km/h 1.0 mph /  1.6 km/h 74 % 0.00 in /  0 mm
10:02 47.5 °F /  8.6 °C 39.3 °F /  4.1 °C 30.33 in /  1027 hPa SSE 1.2 mph /  1.9 km/h 1.2 mph /  1.9 km/h 73 % 0.00 in /  0 mm
10:07 47.7 °F /  8.7 °C 39.5 °F /  4.2 °C 30.33 in /  1027 hPa ENE 2.0 mph /  3.2 km/h 2.0 mph /  3.2 km/h 73 % 0.00 in /  0 mm
10:12 47.9 °F /  8.8 °C 39.7 °F /  4.3 °C 30.32 in /  1026.6 hPa NE 2.3 mph /  3.7 km/h 2.3 mph /  3.7 km/h 73 % 0.00 in /  0 mm
10:17 48.4 °F /  9.1 °C 39.8 °F /  4.3 °C 30.33 in /  1027 hPa South 1.2 mph /  1.9 km/h 1.2 mph /  1.9 km/h 72 % 0.00 in /  0 mm
10:22 48.7 °F /  9.3 °C 40.1 °F /  4.5 °C 30.32 in /  1026.6 hPa SSE 1.2 mph /  1.9 km/h 1.2 mph /  1.9 km/h 72 % 0.00 in /  0 mm
10:27 49.2 °F /  9.6 °C 40.2 °F /  4.6 °C 30.32 in /  1026.6 hPa Calm     71 % 0.00 in /  0 mm
10:32 49.7 °F /  9.8 °C 39.9 °F /  4.4 °C 30.32 in /  1026.6 hPa South 1.2 mph /  1.9 km/h 1.2 mph /  1.9 km/h 69 % 0.00 in /  0 mm
10:37 50.3 °F /  10.2 °C 40.5 °F /  4.7 °C 30.32 in /  1026.6 hPa SE 2.3 mph /  3.7 km/h 2.3 mph /  3.7 km/h 69 % 0.00 in /  0 mm
10:42 50.6 °F /  10.3 °C 40.4 °F /  4.7 °C 30.31 in /  1026.3 hPa East 1.2 mph /  1.9 km/h   68 % 0.00 in /  0 mm
10:47 50.9 °F /  10.5 °C 40.7 °F /  4.8 °C 30.31 in /  1026.3 hPa East 3.5 mph /  5.6 km/h 3.5 mph /  5.6 km/h 68 % 0.00 in /  0 mm
10:57 51.1 °F /  10.6 °C 40.1 °F /  4.5 °C 30.31 in /  1026.3 hPa NW 3.5 mph /  5.6 km/h 3.5 mph /  5.6 km/h 66 % 0.00 in /  0 mm
11:02 51.1 °F /  10.6 °C 40.5 °F /  4.7 °C 30.31 in /  1026.3 hPa SSE 2.3 mph /  3.7 km/h   67 % 0.00 in /  0 mm
11:07 51.7 °F /  10.9 °C 41.1 °F /  5.1 °C 30.31 in /  1026.3 hPa NNW 1.2 mph /  1.9 km/h 1.2 mph /  1.9 km/h 67 % 0.00 in /  0 mm
11:12 51.9 °F /  11.1 °C 40.5 °F /  4.7 °C 30.30 in /  1026 hPa SSW 1.2 mph /  1.9 km/h   65 % 0.00 in /  0 mm
11:17 52.3 °F /  11.3 °C 40.5 °F /  4.7 °C 30.30 in /  1026 hPa NW 2.3 mph /  3.7 km/h 2.3 mph /  3.7 km/h 64 % 0.00 in /  0 mm
11:22 52.4 °F /  11.3 °C 41.0 °F /  5 °C 30.30 in /  1026 hPa WNW 1.2 mph /  1.9 km/h 1.2 mph /  1.9 km/h 65 % 0.00 in /  0 mm
11:27 52.5 °F /  11.4 °C 40.7 °F /  4.8 °C 30.29 in /  1025.6 hPa NNW 1.2 mph /  1.9 km/h 1.2 mph /  1.9 km/h 64 % 0.00 in /  0 mm
11:32 52.9 °F /  11.6 °C 41.0 °F /  5 °C 30.29 in /  1025.6 hPa NNW 2.3 mph /  3.7 km/h 2.3 mph /  3.7 km/h 64 % 0.00 in /  0 mm
11:37 53.1 °F /  11.7 °C 41.2 °F /  5.1 °C 30.29 in /  1025.6 hPa SSE 2.3 mph /  3.7 km/h 2.3 mph /  3.7 km/h 64 % 0.00 in /  0 mm
11:42 53.3 °F /  11.8 °C 41.0 °F /  5 °C 30.28 in /  1025.3 hPa SSW 3.5 mph /  5.6 km/h 3.5 mph /  5.6 km/h 63 % 0.00 in /  0 mm
11:47 53.5 °F /  11.9 °C 41.2 °F /  5.1 °C 30.28 in /  1025.3 hPa NNW 1.2 mph /  1.9 km/h 1.2 mph /  1.9 km/h 63 % 0.00 in /  0 mm
11:52 53.6 °F /  12 °C 41.3 °F /  5.2 °C 30.28 in /  1025.3 hPa South 2.3 mph /  3.7 km/h 2.3 mph /  3.7 km/h 63 % 0.00 in /  0 mm
11:57 54.1 °F /  12.3 °C 41.8 °F /  5.4 °C 30.28 in /  1025.3 hPa South 1.2 mph /  1.9 km/h 1.2 mph /  1.9 km/h 63 % 0.00 in /  0 mm
12:02 54.3 °F /  12.4 °C 41.6 °F /  5.3 °C 30.28 in /  1025.3 hPa SSE 2.3 mph /  3.7 km/h 2.3 mph /  3.7 km/h 62 % 0.00 in /  0 mm
12:07 54.4 °F /  12.4 °C 41.6 °F /  5.3 °C 30.28 in /  1025.3 hPa SSE 2.3 mph /  3.7 km/h 2.3 mph /  3.7 km/h 62 % 0.00 in /  0 mm
12:12 54.8 °F /  12.7 °C 41.6 °F /  5.3 °C 30.27 in /  1024.9 hPa SSE 3.5 mph /  5.6 km/h 3.5 mph /  5.6 km/h 61 % 0.00 in /  0 mm
12:17 55.0 °F /  12.8 °C 41.8 °F /  5.4 °C 30.27 in /  1024.9 hPa East 1.2 mph /  1.9 km/h 1.2 mph /  1.9 km/h 61 % 0.00 in /  0 mm
12:22 55.3 °F /  12.9 °C 42.1 °F /  5.6 °C 30.27 in /  1024.9 hPa WSW 1.2 mph /  1.9 km/h   61 % 0.00 in /  0 mm
12:27 55.3 °F /  12.9 °C 42.1 °F /  5.6 °C 30.27 in /  1024.9 hPa West 1.0 mph /  1.6 km/h   61 % 0.00 in /  0 mm
12:32 55.3 °F /  12.9 °C 41.6 °F /  5.3 °C 30.27 in /  1024.9 hPa East 1.0 mph /  1.6 km/h   60 % 0.00 in /  0 mm
12:37 55.5 °F /  13.1 °C 41.4 °F /  5.2 °C 30.27 in /  1024.9 hPa NW 3.5 mph /  5.6 km/h 3.5 mph /  5.6 km/h 59 % 0.00 in /  0 mm
12:42 55.4 °F /  13 °C 42.2 °F /  5.7 °C 30.26 in /  1024.6 hPa Calm     61 % 0.00 in /  0 mm
12:47 55.7 °F /  13.2 °C 41.6 °F /  5.3 °C 30.26 in /  1024.6 hPa Calm   0.2 mph /  0.3 km/h 59 % 0.00 in /  0 mm
12:52 56.0 °F /  13.3 °C 41.9 °F /  5.5 °C 30.26 in /  1024.6 hPa South 1.2 mph /  1.9 km/h 1.2 mph /  1.9 km/h 59 % 0.00 in /  0 mm
12:57 56.1 °F /  13.4 °C 42.0 °F /  5.6 °C 30.25 in /  1024.3 hPa NW 2.3 mph /  3.7 km/h 2.3 mph /  3.7 km/h 59 % 0.00 in /  0 mm
13:02 55.9 °F /  13.3 °C 41.8 °F /  5.4 °C 30.25 in /  1024.3 hPa WNW 1.2 mph /  1.9 km/h 1.2 mph /  1.9 km/h 59 % 0.00 in /  0 mm
13:08 56.0 °F /  13.3 °C 41.9 °F /  5.5 °C 30.25 in /  1024.3 hPa WNW 1.2 mph /  1.9 km/h 1.2 mph /  1.9 km/h 59 % 0.00 in /  0 mm
13:13 56.3 °F /  13.5 °C 42.1 °F /  5.6 °C 30.25 in /  1024.3 hPa West 1.2 mph /  1.9 km/h   59 % 0.00 in /  0 mm
13:18 56.5 °F /  13.6 °C 41.9 °F /  5.5 °C 30.24 in /  1023.9 hPa West 1.2 mph /  1.9 km/h   58 % 0.00 in /  0 mm
13:23 56.8 °F /  13.8 °C 42.2 °F /  5.7 °C 30.24 in /  1023.9 hPa Calm     58 % 0.00 in /  0 mm
13:28 57.4 °F /  14.1 °C 42.7 °F /  5.9 °C 30.24 in /  1023.9 hPa Calm     58 % 0.00 in /  0 mm
13:33 58.0 °F /  14.4 °C 43.3 °F /  6.3 °C 30.24 in /  1023.9 hPa Calm     58 % 0.00 in /  0 mm
13:38 58.4 °F /  14.7 °C 42.3 °F /  5.7 °C 30.24 in /  1023.9 hPa SE 1.2 mph /  1.9 km/h 1.2 mph /  1.9 km/h 55 % 0.00 in /  0 mm
13:43 58.6 °F /  14.8 °C 42.5 °F /  5.8 °C 30.24 in /  1023.9 hPa SSE 1.2 mph /  1.9 km/h 1.2 mph /  1.9 km/h 55 % 0.00 in /  0 mm
13:48 58.7 °F /  14.8 °C 41.6 °F /  5.3 °C 30.24 in /  1023.9 hPa SE 1.2 mph /  1.9 km/h   53 % 0.00 in /  0 mm
13:53 58.5 °F /  14.7 °C 41.9 °F /  5.5 °C 30.23 in /  1023.6 hPa NW 1.2 mph /  1.9 km/h 1.2 mph /  1.9 km/h 54 % 0.00 in /  0 mm
13:58 58.1 °F /  14.5 °C 41.0 °F /  5 °C 30.23 in /  1023.6 hPa NW 1.2 mph /  1.9 km/h 1.2 mph /  1.9 km/h 53 % 0.00 in /  0 mm
14:03 58.0 °F /  14.4 °C 41.9 °F /  5.5 °C 30.23 in /  1023.6 hPa Calm     55 % 0.00 in /  0 mm
14:08 58.3 °F /  14.6 °C 41.7 °F /  5.4 °C 30.23 in /  1023.6 hPa SE 1.2 mph /  1.9 km/h 1.2 mph /  1.9 km/h 54 % 0.00 in /  0 mm
14:13 58.6 °F /  14.8 °C 41.5 °F /  5.3 °C 30.23 in /  1023.6 hPa WNW 1.2 mph /  1.9 km/h 1.2 mph /  1.9 km/h 53 % 0.00 in /  0 mm
14:18 58.5 °F /  14.7 °C 40.9 °F /  4.9 °C 30.23 in /  1023.6 hPa SSE 1.2 mph /  1.9 km/h 1.2 mph /  1.9 km/h 52 % 0.00 in /  0 mm
14:23 58.4 °F /  14.7 °C 40.8 °F /  4.9 °C 30.23 in /  1023.6 hPa NW 2.0 mph /  3.2 km/h 2.0 mph /  3.2 km/h 52 % 0.00 in /  0 mm
14:28 58.2 °F /  14.6 °C 41.1 °F /  5.1 °C 30.23 in /  1023.6 hPa Calm     53 % 0.00 in /  0 mm
14:33 58.1 °F /  14.5 °C 41.5 °F /  5.3 °C 30.23 in /  1023.6 hPa NNW 1.2 mph /  1.9 km/h   54 % 0.00 in /  0 mm
14:38 57.8 °F /  14.3 °C 40.8 °F /  4.9 °C 30.23 in /  1023.6 hPa Calm     53 % 0.00 in /  0 mm
14:43 57.6 °F /  14.2 °C 40.1 °F /  4.5 °C 30.23 in /  1023.6 hPa NNW 2.3 mph /  3.7 km/h 2.3 mph /  3.7 km/h 52 % 0.00 in /  0 mm
14:48 57.5 °F /  14.2 °C 40.0 °F /  4.4 °C 30.23 in /  1023.6 hPa ENE 1.2 mph /  1.9 km/h 1.2 mph /  1.9 km/h 52 % 0.00 in /  0 mm
14:58 57.4 °F /  14.1 °C 40.4 °F /  4.7 °C 30.23 in /  1023.6 hPa Calm     53 % 0.00 in /  0 mm
15:03 57.4 °F /  14.1 °C 39.9 °F /  4.4 °C 30.23 in /  1023.6 hPa East 1.2 mph /  1.9 km/h 1.2 mph /  1.9 km/h 52 % 0.00 in /  0 mm
15:08 57.4 °F /  14.1 °C 40.4 °F /  4.7 °C 30.24 in /  1023.9 hPa Calm     53 % 0.00 in /  0 mm
15:13 57.4 °F /  14.1 °C 40.4 °F /  4.7 °C 30.24 in /  1023.9 hPa Calm     53 % 0.00 in /  0 mm
15:18 57.2 °F /  14 °C 40.2 °F /  4.6 °C 30.24 in /  1023.9 hPa Calm     53 % 0.00 in /  0 mm
15:23 57.1 °F /  13.9 °C 39.6 °F /  4.2 °C 30.23 in /  1023.6 hPa SSE 1.2 mph /  1.9 km/h 1.2 mph /  1.9 km/h 52 % 0.00 in /  0 mm
15:28 57.0 °F /  13.9 °C 40.0 °F /  4.4 °C 30.24 in /  1023.9 hPa Calm     53 % 0.00 in /  0 mm
15:33 57.0 °F /  13.9 °C 40.5 °F /  4.7 °C 30.24 in /  1023.9 hPa Calm     54 % 0.00 in /  0 mm
15:38 56.8 °F /  13.8 °C 39.8 °F /  4.3 °C 30.23 in /  1023.6 hPa Calm     53 % 0.00 in /  0 mm
15:43 56.7 °F /  13.7 °C 40.2 °F /  4.6 °C 30.23 in /  1023.6 hPa Calm     54 % 0.00 in /  0 mm
15:48 56.6 °F /  13.7 °C 40.6 °F /  4.8 °C 30.24 in /  1023.9 hPa Calm     55 % 0.00 in /  0 mm
15:53 56.3 °F /  13.5 °C 40.8 °F /  4.9 °C 30.23 in /  1023.6 hPa Calm     56 % 0.00 in /  0 mm
15:58 56.1 °F /  13.4 °C 40.6 °F /  4.8 °C 30.23 in /  1023.6 hPa Calm     56 % 0.00 in /  0 mm
16:03 55.9 °F /  13.3 °C 40.9 °F /  4.9 °C 30.23 in /  1023.6 hPa Calm     57 % 0.00 in /  0 mm
16:08 55.7 °F /  13.2 °C 41.1 °F /  5.1 °C 30.23 in /  1023.6 hPa Calm     58 % 0.00 in /  0 mm
16:13 55.5 °F /  13.1 °C 41.0 °F /  5 °C 30.23 in /  1023.6 hPa Calm     58 % 0.00 in /  0 mm
16:18 55.3 °F /  12.9 °C 41.2 °F /  5.1 °C 30.23 in /  1023.6 hPa Calm     59 % 0.00 in /  0 mm
16:24 55.0 °F /  12.8 °C 40.5 °F /  4.7 °C 30.23 in /  1023.6 hPa Calm     58 % 0.00 in /  0 mm
16:34 54.1 °F /  12.3 °C 41.8 °F /  5.4 °C 30.23 in /  1023.6 hPa Calm     63 % 0.00 in /  0 mm
16:39 53.3 °F /  11.8 °C 41.4 °F /  5.2 °C 30.23 in /  1023.6 hPa Calm     64 % 0.00 in /  0 mm
16:44 52.6 °F /  11.4 °C 41.6 °F /  5.3 °C 30.23 in /  1023.6 hPa Calm     66 % 0.00 in /  0 mm
16:49 51.9 °F /  11.1 °C 41.3 °F /  5.2 °C 30.23 in /  1023.6 hPa Calm     67 % 0.00 in /  0 mm
16:54 51.4 °F /  10.8 °C 40.8 °F /  4.9 °C 30.23 in /  1023.6 hPa Calm     67 % 0.00 in /  0 mm
16:59 51.0 °F /  10.6 °C 40.8 °F /  4.9 °C 30.23 in /  1023.6 hPa Calm     68 % 0.00 in /  0 mm
17:04 50.5 °F /  10.3 °C 40.7 °F /  4.8 °C 30.23 in /  1023.6 hPa Calm     69 % 0.00 in /  0 mm
17:09 49.8 °F /  9.9 °C 40.4 °F /  4.7 °C 30.23 in /  1023.6 hPa Calm     70 % 0.00 in /  0 mm
17:14 49.2 °F /  9.6 °C 40.6 °F /  4.8 °C 30.23 in /  1023.6 hPa Calm     72 % 0.00 in /  0 mm
17:19 48.5 °F /  9.2 °C 40.2 °F /  4.6 °C 30.23 in /  1023.6 hPa Calm     73 % 0.00 in /  0 mm
17:24 47.8 °F /  8.8 °C 39.9 °F /  4.4 °C 30.24 in /  1023.9 hPa Calm     74 % 0.00 in /  0 mm
17:29 47.3 °F /  8.5 °C 40.1 °F /  4.5 °C 30.23 in /  1023.6 hPa Calm     76 % 0.00 in /  0 mm
17:34 47.0 °F /  8.3 °C 40.2 °F /  4.6 °C 30.23 in /  1023.6 hPa Calm     77 % 0.00 in /  0 mm
17:39 46.5 °F /  8.1 °C 39.7 °F /  4.3 °C 30.23 in /  1023.6 hPa Calm     77 % 0.00 in /  0 mm
17:44 46.0 °F /  7.8 °C 39.9 °F /  4.4 °C 30.24 in /  1023.9 hPa Calm     79 % 0.00 in /  0 mm
17:49 45.9 °F /  7.7 °C 40.1 °F /  4.5 °C 30.24 in /  1023.9 hPa Calm     80 % 0.00 in /  0 mm
17:54 45.9 °F /  7.7 °C 39.8 °F /  4.3 °C 30.24 in /  1023.9 hPa Calm     79 % 0.00 in /  0 mm
17:59 45.6 °F /  7.6 °C 39.5 °F /  4.2 °C 30.24 in /  1023.9 hPa Calm     79 % 0.00 in /  0 mm
18:04 45.2 °F /  7.3 °C 39.7 °F /  4.3 °C 30.24 in /  1023.9 hPa Calm     81 % 0.00 in /  0 mm
18:09 44.8 °F /  7.1 °C 39.3 °F /  4.1 °C 30.24 in /  1023.9 hPa Calm     81 % 0.00 in /  0 mm
18:14 44.4 °F /  6.9 °C 38.9 °F /  3.8 °C 30.25 in /  1024.3 hPa Calm     81 % 0.00 in /  0 mm
18:19 44.1 °F /  6.7 °C 39.0 °F /  3.9 °C 30.25 in /  1024.3 hPa Calm     82 % 0.00 in /  0 mm
18:24 43.7 °F /  6.5 °C 38.6 °F /  3.7 °C 30.25 in /  1024.3 hPa Calm     82 % 0.00 in /  0 mm
18:29 43.4 °F /  6.3 °C 38.6 °F /  3.7 °C 30.25 in /  1024.3 hPa Calm     83 % 0.00 in /  0 mm
18:34 43.0 °F /  6.1 °C 38.5 °F /  3.6 °C 30.25 in /  1024.3 hPa Calm     84 % 0.00 in /  0 mm
18:39 42.8 °F /  6 °C 38.3 °F /  3.5 °C 30.25 in /  1024.3 hPa Calm     84 % 0.00 in /  0 mm
18:44 42.9 °F /  6.1 °C 38.4 °F /  3.6 °C 30.25 in /  1024.3 hPa Calm     84 % 0.00 in /  0 mm
18:49 43.0 °F /  6.1 °C 38.5 °F /  3.6 °C 30.25 in /  1024.3 hPa Calm     84 % 0.00 in /  0 mm
18:54 42.9 °F /  6.1 °C 38.4 °F /  3.6 °C 30.25 in /  1024.3 hPa Calm     84 % 0.00 in /  0 mm
18:59 42.6 °F /  5.9 °C 38.1 °F /  3.4 °C 30.25 in /  1024.3 hPa Calm     84 % 0.00 in /  0 mm
19:04 42.4 °F /  5.8 °C 38.2 °F /  3.4 °C 30.25 in /  1024.3 hPa Calm     85 % 0.00 in /  0 mm
19:10 42.3 °F /  5.7 °C 38.4 °F /  3.6 °C 30.25 in /  1024.3 hPa Calm     86 % 0.00 in /  0 mm
19:15 42.2 °F /  5.7 °C 38.0 °F /  3.3 °C 30.26 in /  1024.6 hPa Calm     85 % 0.00 in /  0 mm
19:20 42.1 °F /  5.6 °C 38.2 °F /  3.4 °C 30.26 in /  1024.6 hPa Calm     86 % 0.00 in /  0 mm
19:25 41.9 °F /  5.5 °C 38.0 °F /  3.3 °C 30.26 in /  1024.6 hPa Calm     86 % 0.00 in /  0 mm
19:30 41.7 °F /  5.4 °C 37.8 °F /  3.2 °C 30.25 in /  1024.3 hPa Calm     86 % 0.00 in /  0 mm
19:35 41.4 °F /  5.2 °C 37.2 °F /  2.9 °C 30.26 in /  1024.6 hPa Calm     85 % 0.00 in /  0 mm
19:40 41.1 °F /  5.1 °C 37.2 °F /  2.9 °C 30.26 in /  1024.6 hPa Calm     86 % 0.00 in /  0 mm
19:45 40.7 °F /  4.8 °C 36.8 °F /  2.7 °C 30.26 in /  1024.6 hPa Calm     86 % 0.00 in /  0 mm
19:50 40.6 °F /  4.8 °C 37.3 °F /  2.9 °C 30.26 in /  1024.6 hPa Calm     88 % 0.00 in /  0 mm
19:55 40.5 °F /  4.7 °C 37.2 °F /  2.9 °C 30.26 in /  1024.6 hPa Calm     88 % 0.00 in /  0 mm
20:00 40.6 °F /  4.8 °C 37.3 °F /  2.9 °C 30.26 in /  1024.6 hPa Calm     88 % 0.00 in /  0 mm
20:05 40.6 °F /  4.8 °C 37.3 °F /  2.9 °C 30.26 in /  1024.6 hPa Calm     88 % 0.00 in /  0 mm
20:10 40.5 °F /  4.7 °C 37.2 °F /  2.9 °C 30.26 in /  1024.6 hPa Calm     88 % 0.00 in /  0 mm
20:15 40.2 °F /  4.6 °C 36.6 °F /  2.6 °C 30.26 in /  1024.6 hPa Calm     87 % 0.00 in /  0 mm
20:20 40.0 °F /  4.4 °C 36.4 °F /  2.4 °C 30.26 in /  1024.6 hPa Calm     87 % 0.00 in /  0 mm
20:25 39.7 °F /  4.3 °C 36.4 °F /  2.4 °C 30.26 in /  1024.6 hPa Calm     88 % 0.00 in /  0 mm
20:30 39.9 °F /  4.4 °C 36.6 °F /  2.6 °C 30.26 in /  1024.6 hPa Calm     88 % 0.00 in /  0 mm
20:35 39.9 °F /  4.4 °C 36.6 °F /  2.6 °C 30.26 in /  1024.6 hPa Calm     88 % 0.00 in /  0 mm
20:40 39.5 °F /  4.2 °C 36.0 °F /  2.2 °C 30.26 in /  1024.6 hPa Calm     87 % 0.00 in /  0 mm
20:45 38.9 °F /  3.8 °C 35.4 °F /  1.9 °C 30.26 in /  1024.6 hPa Calm     87 % 0.00 in /  0 mm
20:50 38.5 °F /  3.6 °C 35.0 °F /  1.7 °C 30.26 in /  1024.6 hPa Calm     87 % 0.00 in /  0 mm
20:55 38.1 °F /  3.4 °C 34.6 °F /  1.4 °C 30.27 in /  1024.9 hPa Calm     87 % 0.00 in /  0 mm
21:00 37.9 °F /  3.3 °C 34.7 °F /  1.5 °C 30.27 in /  1024.9 hPa Calm     88 % 0.00 in /  0 mm
21:05 37.7 °F /  3.2 °C 34.5 °F /  1.4 °C 30.27 in /  1024.9 hPa Calm     88 % 0.00 in /  0 mm
21:10 37.3 °F /  2.9 °C 34.1 °F /  1.2 °C 30.27 in /  1024.9 hPa Calm     88 % 0.00 in /  0 mm
21:15 37.3 °F /  2.9 °C 34.1 °F /  1.2 °C 30.27 in /  1024.9 hPa Calm     88 % 0.00 in /  0 mm
21:20 37.3 °F /  2.9 °C 34.4 °F /  1.3 °C 30.28 in /  1025.3 hPa Calm     89 % 0.00 in /  0 mm
21:25 37.3 °F /  2.9 °C 34.6 °F /  1.4 °C 30.28 in /  1025.3 hPa Calm     90 % 0.00 in /  0 mm
21:30 37.2 °F /  2.9 °C 34.3 °F /  1.3 °C 30.28 in /  1025.3 hPa Calm     89 % 0.00 in /  0 mm
21:35 37.1 °F /  2.8 °C 34.4 °F /  1.3 °C 30.28 in /  1025.3 hPa Calm     90 % 0.00 in /  0 mm
21:40 37.1 °F /  2.8 °C 34.4 °F /  1.3 °C 30.28 in /  1025.3 hPa Calm     90 % 0.00 in /  0 mm
21:45 36.9 °F /  2.7 °C 34.2 °F /  1.2 °C 30.28 in /  1025.3 hPa Calm     90 % 0.00 in /  0 mm
21:50 37.4 °F /  3 °C 35.3 °F /  1.8 °C 30.28 in /  1025.3 hPa Calm     92 % 0.00 in /  0 mm
21:55 37.7 °F /  3.2 °C 35.3 °F /  1.8 °C 30.28 in /  1025.3 hPa Calm     91 % 0.00 in /  0 mm
22:00 37.8 °F /  3.2 °C 35.1 °F /  1.7 °C 30.28 in /  1025.3 hPa Calm     90 % 0.00 in /  0 mm
22:05 37.7 °F /  3.2 °C 35.0 °F /  1.7 °C 30.28 in /  1025.3 hPa Calm     90 % 0.00 in /  0 mm
22:10 37.5 °F /  3.1 °C 34.8 °F /  1.6 °C 30.29 in /  1025.6 hPa Calm     90 % 0.00 in /  0 mm
22:15 37.3 °F /  2.9 °C 34.6 °F /  1.4 °C 30.29 in /  1025.6 hPa Calm     90 % 0.00 in /  0 mm
22:18 37.3 °F /  2.9 °C 34.6 °F /  1.4 °C 30.29 in /  1025.6 hPa Calm     90 % 0.00 in /  0 mm
22:23 37.0 °F /  2.8 °C 34.3 °F /  1.3 °C 30.29 in /  1025.6 hPa Calm     90 % 0.00 in /  0 mm
22:28 36.6 °F /  2.6 °C 33.7 °F /  0.9 °C 30.29 in /  1025.6 hPa Calm     89 % 0.00 in /  0 mm
22:33 36.3 °F /  2.4 °C 33.6 °F /  0.9 °C 30.29 in /  1025.6 hPa Calm     90 % 0.00 in /  0 mm
22:38 36.1 °F /  2.3 °C 33.5 °F /  0.8 °C 30.29 in /  1025.6 hPa Calm     90 % 0.00 in /  0 mm
22:43 36.1 °F /  2.3 °C 33.7 °F /  0.9 °C 30.30 in /  1026 hPa Calm     91 % 0.00 in /  0 mm
22:48 36.1 °F /  2.3 °C 33.7 °F /  0.9 °C 30.30 in /  1026 hPa Calm     91 % 0.00 in /  0 mm
22:53 36.3 °F /  2.4 °C 34.2 °F /  1.2 °C 30.30 in /  1026 hPa Calm     92 % 0.00 in /  0 mm
22:58 36.3 °F /  2.4 °C 34.2 °F /  1.2 °C 30.30 in /  1026 hPa Calm     92 % 0.00 in /  0 mm
23:03 36.3 °F /  2.4 °C 34.2 °F /  1.2 °C 30.30 in /  1026 hPa Calm     92 % 0.00 in /  0 mm
23:08 36.2 °F /  2.3 °C 33.8 °F /  1 °C 30.30 in /  1026 hPa Calm     91 % 0.00 in /  0 mm
23:18 35.8 °F /  2.1 °C 33.2 °F /  0.7 °C 30.30 in /  1026 hPa Calm     90 % 0.00 in /  0 mm
23:23 35.6 °F /  2 °C 33.2 °F /  0.7 °C 30.30 in /  1026 hPa Calm     91 % 0.00 in /  0 mm
23:28 35.4 °F /  1.9 °C 33.0 °F /  0.6 °C 30.30 in /  1026 hPa Calm     91 % 0.00 in /  0 mm
23:33 35.3 °F /  1.8 °C 32.9 °F /  0.5 °C 30.30 in /  1026 hPa Calm     91 % 0.00 in /  0 mm
23:38 35.2 °F /  1.8 °C 32.8 °F /  0.4 °C 30.30 in /  1026 hPa Calm     91 % 0.00 in /  0 mm
23:43 35.0 °F /  1.7 °C 32.6 °F /  0.3 °C 30.30 in /  1026 hPa Calm     91 % 0.00 in /  0 mm
23:48 34.2 °F /  1.2 °C 31.3 °F /  -0.4 °C 30.31 in /  1026.3 hPa Calm     89 % 0.00 in /  0 mm
23:53 33.9 °F /  1.1 °C 31.3 °F /  -0.4 °C 30.30 in /  1026 hPa Calm     90 % 0.00 in /  0 mm
23:58 33.8 °F /  1 °C 31.2 °F /  -0.4 °C 30.31 in /  1026.3 hPa Calm     90 % 0.00 in /  0 mm
Park Place, Exeter, Tulare County, California, USA
Compliments of Weather Underground - 2.75 mb